sensor_id;sensor_type;location;lat;lon;timestamp;temperature;humidity
13074;DHT22;6603;47.066;15.396;2023-06-22T00:02:21;19.60;99.90
13074;DHT22;6603;47.066;15.396;2023-06-22T00:04:47;19.60;99.90
13074;DHT22;6603;47.066;15.396;2023-06-22T00:07:13;19.50;99.90
13074;DHT22;6603;47.066;15.396;2023-06-22T00:09:39;19.50;99.90
13074;DHT22;6603;47.066;15.396;2023-06-22T00:12:05;19.40;99.90
13074;DHT22;6603;47.066;15.396;2023-06-22T00:14:31;19.20;99.90
13074;DHT22;6603;47.066;15.396;2023-06-22T00:16:57;19.20;99.90
13074;DHT22;6603;47.066;15.396;2023-06-22T00:19:24;19.20;99.90
13074;DHT22;6603;47.066;15.396;2023-06-22T00:21:51;19.30;99.90
13074;DHT22;6603;47.066;15.396;2023-06-22T00:24:20;19.30;99.90
13074;DHT22;6603;47.066;15.396;2023-06-22T00:26:48;19.30;99.90
13074;DHT22;6603;47.066;15.396;2023-06-22T00:29:14;19.30;99.90
13074;DHT22;6603;47.066;15.396;2023-06-22T00:31:40;19.20;99.90
13074;DHT22;6603;47.066;15.396;2023-06-22T00:34:06;19.10;99.90
13074;DHT22;6603;47.066;15.396;2023-06-22T00:36:35;19.20;99.90
13074;DHT22;6603;47.066;15.396;2023-06-22T00:39:02;19.10;99.90
13074;DHT22;6603;47.066;15.396;2023-06-22T00:41:28;19.10;99.90
13074;DHT22;6603;47.066;15.396;2023-06-22T00:43:54;19.00;99.90
13074;DHT22;6603;47.066;15.396;2023-06-22T00:46:22;19.00;99.90
13074;DHT22;6603;47.066;15.396;2023-06-22T00:48:49;19.00;99.90
13074;DHT22;6603;47.066;15.396;2023-06-22T00:51:16;19.00;99.90
13074;DHT22;6603;47.066;15.396;2023-06-22T00:53:42;19.00;99.90
13074;DHT22;6603;47.066;15.396;2023-06-22T00:56:09;19.00;99.90
13074;DHT22;6603;47.066;15.396;2023-06-22T00:58:39;18.90;99.90
13074;DHT22;6603;47.066;15.396;2023-06-22T01:01:07;18.90;99.90
13074;DHT22;6603;47.066;15.396;2023-06-22T01:03:33;18.80;99.90
13074;DHT22;6603;47.066;15.396;2023-06-22T01:06:08;18.80;99.90
13074;DHT22;6603;47.066;15.396;2023-06-22T01:09:02;18.60;99.90
13074;DHT22;6603;47.066;15.396;2023-06-22T01:11:38;18.70;99.90
13074;DHT22;6603;47.066;15.396;2023-06-22T01:14:17;18.70;99.90
13074;DHT22;6603;47.066;15.396;2023-06-22T01:16:44;18.60;99.90
13074;DHT22;6603;47.066;15.396;2023-06-22T01:22:01;18.50;99.90
13074;DHT22;6603;47.066;15.396;2023-06-22T01:30:16;18.50;99.90
13074;DHT22;6603;47.066;15.396;2023-06-22T01:32:43;18.70;99.90
13074;DHT22;6603;47.066;15.396;2023-06-22T01:35:10;18.60;99.90
13074;DHT22;6603;47.066;15.396;2023-06-22T01:37:38;18.60;99.90
13074;DHT22;6603;47.066;15.396;2023-06-22T01:40:06;18.70;99.90
13074;DHT22;6603;47.066;15.396;2023-06-22T01:42:35;18.60;99.90
13074;DHT22;6603;47.066;15.396;2023-06-22T01:45:03;18.60;99.90
13074;DHT22;6603;47.066;15.396;2023-06-22T01:47:29;18.60;99.90
13074;DHT22;6603;47.066;15.396;2023-06-22T01:49:56;18.60;99.90
13074;DHT22;6603;47.066;15.396;2023-06-22T01:52:22;18.50;99.90
13074;DHT22;6603;47.066;15.396;2023-06-22T01:54:48;18.40;99.90
13074;DHT22;6603;47.066;15.396;2023-06-22T01:57:15;18.40;99.90
13074;DHT22;6603;47.066;15.396;2023-06-22T02:00:03;18.30;99.90
13074;DHT22;6603;47.066;15.396;2023-06-22T02:02:45;18.20;99.90
13074;DHT22;6603;47.066;15.396;2023-06-22T02:05:17;18.20;99.90
13074;DHT22;6603;47.066;15.396;2023-06-22T02:07:56;18.10;99.90
13074;DHT22;6603;47.066;15.396;2023-06-22T02:10:27;18.10;99.90
13074;DHT22;6603;47.066;15.396;2023-06-22T02:12:54;18.20;99.90
13074;DHT22;6603;47.066;15.396;2023-06-22T02:15:21;18.30;99.90
13074;DHT22;6603;47.066;15.396;2023-06-22T02:17:48;18.30;99.90
13074;DHT22;6603;47.066;15.396;2023-06-22T02:20:15;18.30;99.90
13074;DHT22;6603;47.066;15.396;2023-06-22T02:22:41;18.30;99.90
13074;DHT22;6603;47.066;15.396;2023-06-22T02:25:07;18.30;99.90
13074;DHT22;6603;47.066;15.396;2023-06-22T02:27:33;18.20;99.90
13074;DHT22;6603;47.066;15.396;2023-06-22T02:29:59;18.20;99.90
13074;DHT22;6603;47.066;15.396;2023-06-22T02:32:25;18.30;99.90
13074;DHT22;6603;47.066;15.396;2023-06-22T02:34:51;18.30;99.90
13074;DHT22;6603;47.066;15.396;2023-06-22T02:37:17;18.10;99.90
13074;DHT22;6603;47.066;15.396;2023-06-22T02:39:43;18.00;99.90
13074;DHT22;6603;47.066;15.396;2023-06-22T02:42:09;18.00;99.90
13074;DHT22;6603;47.066;15.396;2023-06-22T02:44:37;18.10;99.90
13074;DHT22;6603;47.066;15.396;2023-06-22T02:47:03;18.10;99.90
13074;DHT22;6603;47.066;15.396;2023-06-22T02:49:33;18.10;99.90
13074;DHT22;6603;47.066;15.396;2023-06-22T02:51:58;18.10;99.90
13074;DHT22;6603;47.066;15.396;2023-06-22T02:54:24;18.10;99.90
13074;DHT22;6603;47.066;15.396;2023-06-22T02:56:51;18.00;99.90
13074;DHT22;6603;47.066;15.396;2023-06-22T02:59:16;18.00;99.90
13074;DHT22;6603;47.066;15.396;2023-06-22T03:01:42;18.00;99.90
13074;DHT22;6603;47.066;15.396;2023-06-22T03:04:09;18.00;99.90
13074;DHT22;6603;47.066;15.396;2023-06-22T03:06:36;18.00;99.90
13074;DHT22;6603;47.066;15.396;2023-06-22T03:09:03;18.00;99.90
13074;DHT22;6603;47.066;15.396;2023-06-22T03:11:34;17.90;99.90
13074;DHT22;6603;47.066;15.396;2023-06-22T03:14:01;17.90;99.90
13074;DHT22;6603;47.066;15.396;2023-06-22T03:16:26;18.00;99.90
13074;DHT22;6603;47.066;15.396;2023-06-22T03:18:53;18.00;99.90
13074;DHT22;6603;47.066;15.396;2023-06-22T03:21:21;18.10;99.90
13074;DHT22;6603;47.066;15.396;2023-06-22T03:23:47;18.00;99.90
13074;DHT22;6603;47.066;15.396;2023-06-22T03:26:17;17.90;99.90
13074;DHT22;6603;47.066;15.396;2023-06-22T03:28:44;18.10;99.90
13074;DHT22;6603;47.066;15.396;2023-06-22T03:31:09;18.00;99.90
13074;DHT22;6603;47.066;15.396;2023-06-22T03:33:35;17.90;99.90
13074;DHT22;6603;47.066;15.396;2023-06-22T03:36:01;18.00;99.90
13074;DHT22;6603;47.066;15.396;2023-06-22T03:38:28;18.00;99.90
13074;DHT22;6603;47.066;15.396;2023-06-22T03:40:54;18.00;99.90
13074;DHT22;6603;47.066;15.396;2023-06-22T03:43:20;18.00;99.90
13074;DHT22;6603;47.066;15.396;2023-06-22T03:45:45;18.10;99.90
13074;DHT22;6603;47.066;15.396;2023-06-22T03:48:12;18.20;99.90
13074;DHT22;6603;47.066;15.396;2023-06-22T03:50:38;18.20;99.90
13074;DHT22;6603;47.066;15.396;2023-06-22T03:53:04;18.30;99.90
13074;DHT22;6603;47.066;15.396;2023-06-22T03:55:29;18.30;99.90
13074;DHT22;6603;47.066;15.396;2023-06-22T03:57:55;18.40;99.90
13074;DHT22;6603;47.066;15.396;2023-06-22T04:00:25;18.50;99.90
13074;DHT22;6603;47.066;15.396;2023-06-22T04:02:51;18.60;99.90
13074;DHT22;6603;47.066;15.396;2023-06-22T04:05:17;18.60;99.90
13074;DHT22;6603;47.066;15.396;2023-06-22T04:07:45;18.70;99.90
13074;DHT22;6603;47.066;15.396;2023-06-22T04:10:11;18.70;99.90
13074;DHT22;6603;47.066;15.396;2023-06-22T04:12:37;18.70;99.90
13074;DHT22;6603;47.066;15.396;2023-06-22T04:15:03;18.80;99.90
13074;DHT22;6603;47.066;15.396;2023-06-22T04:17:29;18.90;99.90
13074;DHT22;6603;47.066;15.396;2023-06-22T04:19:54;19.00;99.90
13074;DHT22;6603;47.066;15.396;2023-06-22T04:22:20;19.00;99.90
13074;DHT22;6603;47.066;15.396;2023-06-22T04:24:46;19.00;99.90
13074;DHT22;6603;47.066;15.396;2023-06-22T04:27:12;19.00;99.90
13074;DHT22;6603;47.066;15.396;2023-06-22T04:29:38;19.10;99.90
13074;DHT22;6603;47.066;15.396;2023-06-22T04:32:09;19.10;99.90
13074;DHT22;6603;47.066;15.396;2023-06-22T04:34:37;19.10;99.90
13074;DHT22;6603;47.066;15.396;2023-06-22T04:37:04;19.20;99.90
13074;DHT22;6603;47.066;15.396;2023-06-22T04:39:30;19.30;99.90
13074;DHT22;6603;47.066;15.396;2023-06-22T04:41:57;19.40;99.90
13074;DHT22;6603;47.066;15.396;2023-06-22T04:44:26;19.50;99.90
13074;DHT22;6603;47.066;15.396;2023-06-22T04:46:56;19.60;99.90
13074;DHT22;6603;47.066;15.396;2023-06-22T04:49:29;19.70;99.90
13074;DHT22;6603;47.066;15.396;2023-06-22T04:52:09;19.80;99.90
13074;DHT22;6603;47.066;15.396;2023-06-22T04:54:37;19.90;99.90
13074;DHT22;6603;47.066;15.396;2023-06-22T04:57:07;20.00;99.90
13074;DHT22;6603;47.066;15.396;2023-06-22T04:59:37;20.10;99.90
13074;DHT22;6603;47.066;15.396;2023-06-22T05:02:05;20.10;99.90
13074;DHT22;6603;47.066;15.396;2023-06-22T05:04:34;20.20;99.90
13074;DHT22;6603;47.066;15.396;2023-06-22T05:07:04;20.20;99.90
13074;DHT22;6603;47.066;15.396;2023-06-22T05:09:31;20.30;99.90
13074;DHT22;6603;47.066;15.396;2023-06-22T05:11:57;20.40;99.90
13074;DHT22;6603;47.066;15.396;2023-06-22T05:14:23;20.50;99.90
13074;DHT22;6603;47.066;15.396;2023-06-22T05:16:49;20.60;99.90
13074;DHT22;6603;47.066;15.396;2023-06-22T05:19:17;20.70;99.90
13074;DHT22;6603;47.066;15.396;2023-06-22T05:21:43;20.70;99.90
13074;DHT22;6603;47.066;15.396;2023-06-22T05:24:09;20.80;99.90
13074;DHT22;6603;47.066;15.396;2023-06-22T05:26:35;20.90;99.90
13074;DHT22;6603;47.066;15.396;2023-06-22T05:29:02;21.00;99.90
13074;DHT22;6603;47.066;15.396;2023-06-22T05:31:28;21.00;99.90
13074;DHT22;6603;47.066;15.396;2023-06-22T05:33:55;21.20;99.90
13074;DHT22;6603;47.066;15.396;2023-06-22T05:36:21;21.30;99.90
13074;DHT22;6603;47.066;15.396;2023-06-22T05:38:51;21.40;99.90
13074;DHT22;6603;47.066;15.396;2023-06-22T05:41:18;21.40;99.90
13074;DHT22;6603;47.066;15.396;2023-06-22T05:43:44;21.60;99.90
13074;DHT22;6603;47.066;15.396;2023-06-22T05:46:10;21.60;99.90
13074;DHT22;6603;47.066;15.396;2023-06-22T05:48:35;21.70;99.90
13074;DHT22;6603;47.066;15.396;2023-06-22T05:51:01;21.80;99.90
13074;DHT22;6603;47.066;15.396;2023-06-22T05:53:27;21.90;99.90
13074;DHT22;6603;47.066;15.396;2023-06-22T05:55:52;22.00;99.90
13074;DHT22;6603;47.066;15.396;2023-06-22T06:04:52;22.40;99.90
13074;DHT22;6603;47.066;15.396;2023-06-22T06:07:18;22.50;99.90
13074;DHT22;6603;47.066;15.396;2023-06-22T06:09:44;22.60;99.90
13074;DHT22;6603;47.066;15.396;2023-06-22T06:12:09;22.70;99.90
13074;DHT22;6603;47.066;15.396;2023-06-22T06:14:35;22.90;99.90
13074;DHT22;6603;47.066;15.396;2023-06-22T06:17:01;22.90;63.10
13074;DHT22;6603;47.066;15.396;2023-06-22T06:19:27;23.00;99.90
13074;DHT22;6603;47.066;15.396;2023-06-22T06:21:53;23.10;99.90
13074;DHT22;6603;47.066;15.396;2023-06-22T06:24:19;23.20;99.90
13074;DHT22;6603;47.066;15.396;2023-06-22T06:26:44;23.30;91.80
13074;DHT22;6603;47.066;15.396;2023-06-22T06:29:10;23.50;31.40
13074;DHT22;6603;47.066;15.396;2023-06-22T06:31:36;23.60;1.00
13074;DHT22;6603;47.066;15.396;2023-06-22T06:34:01;23.80;1.00
13074;DHT22;6603;47.066;15.396;2023-06-22T06:36:27;23.90;1.00
13074;DHT22;6603;47.066;15.396;2023-06-22T06:38:53;24.00;12.50
13074;DHT22;6603;47.066;15.396;2023-06-22T06:41:19;24.10;68.00
13074;DHT22;6603;47.066;15.396;2023-06-22T06:43:45;24.20;22.50
13074;DHT22;6603;47.066;15.396;2023-06-22T06:46:11;24.30;99.90
13074;DHT22;6603;47.066;15.396;2023-06-22T06:48:37;24.20;1.00
13074;DHT22;6603;47.066;15.396;2023-06-22T06:51:03;24.20;1.00
13074;DHT22;6603;47.066;15.396;2023-06-22T06:53:28;24.40;41.10
13074;DHT22;6603;47.066;15.396;2023-06-22T06:55:55;24.40;15.40
13074;DHT22;6603;47.066;15.396;2023-06-22T06:58:20;24.50;1.00
13074;DHT22;6603;47.066;15.396;2023-06-22T07:00:48;24.70;1.00
13074;DHT22;6603;47.066;15.396;2023-06-22T07:03:15;24.80;1.00
13074;DHT22;6603;47.066;15.396;2023-06-22T07:05:40;24.80;1.00
13074;DHT22;6603;47.066;15.396;2023-06-22T07:08:06;25.00;1.00
13074;DHT22;6603;47.066;15.396;2023-06-22T07:10:32;25.10;1.00
13074;DHT22;6603;47.066;15.396;2023-06-22T07:12:58;25.00;1.00
13074;DHT22;6603;47.066;15.396;2023-06-22T07:15:24;25.10;1.00
13074;DHT22;6603;47.066;15.396;2023-06-22T07:17:50;25.30;1.00
13074;DHT22;6603;47.066;15.396;2023-06-22T07:20:16;25.50;1.00
13074;DHT22;6603;47.066;15.396;2023-06-22T07:22:43;25.70;1.00
13074;DHT22;6603;47.066;15.396;2023-06-22T07:25:10;25.70;3.50
13074;DHT22;6603;47.066;15.396;2023-06-22T07:27:44;25.70;1.00
13074;DHT22;6603;47.066;15.396;2023-06-22T07:30:11;25.70;1.00
13074;DHT22;6603;47.066;15.396;2023-06-22T07:32:38;25.70;1.00
13074;DHT22;6603;47.066;15.396;2023-06-22T07:35:04;25.90;1.00
13074;DHT22;6603;47.066;15.396;2023-06-22T07:37:30;26.00;1.00
13074;DHT22;6603;47.066;15.396;2023-06-22T07:39:56;26.00;1.00
13074;DHT22;6603;47.066;15.396;2023-06-22T07:42:26;26.10;99.90
13074;DHT22;6603;47.066;15.396;2023-06-22T07:44:53;26.10;1.00
13074;DHT22;6603;47.066;15.396;2023-06-22T07:47:19;26.20;1.00
13074;DHT22;6603;47.066;15.396;2023-06-22T07:49:45;26.40;1.00
13074;DHT22;6603;47.066;15.396;2023-06-22T07:52:12;26.50;1.00
13074;DHT22;6603;47.066;15.396;2023-06-22T07:54:38;26.50;99.90
13074;DHT22;6603;47.066;15.396;2023-06-22T07:57:04;26.50;1.00
13074;DHT22;6603;47.066;15.396;2023-06-22T07:59:30;26.60;1.00
13074;DHT22;6603;47.066;15.396;2023-06-22T08:01:56;26.80;1.00
13074;DHT22;6603;47.066;15.396;2023-06-22T08:04:22;26.80;99.90
13074;DHT22;6603;47.066;15.396;2023-06-22T08:06:48;26.80;95.90
13074;DHT22;6603;47.066;15.396;2023-06-22T08:09:15;26.60;1.00
13074;DHT22;6603;47.066;15.396;2023-06-22T08:11:41;26.70;1.00
13074;DHT22;6603;47.066;15.396;2023-06-22T08:14:06;26.90;99.90
13074;DHT22;6603;47.066;15.396;2023-06-22T08:16:32;27.00;1.00
13074;DHT22;6603;47.066;15.396;2023-06-22T08:18:58;26.80;1.00
13074;DHT22;6603;47.066;15.396;2023-06-22T08:21:24;27.00;1.00
13074;DHT22;6603;47.066;15.396;2023-06-22T08:23:50;27.20;28.20
13074;DHT22;6603;47.066;15.396;2023-06-22T08:26:16;27.20;99.90
13074;DHT22;6603;47.066;15.396;2023-06-22T08:28:41;27.10;10.60
13074;DHT22;6603;47.066;15.396;2023-06-22T08:31:07;27.30;1.00
13074;DHT22;6603;47.066;15.396;2023-06-22T08:33:34;27.50;71.10
13074;DHT22;6603;47.066;15.396;2023-06-22T08:36:00;27.50;1.00
13074;DHT22;6603;47.066;15.396;2023-06-22T08:38:26;27.50;1.00
13074;DHT22;6603;47.066;15.396;2023-06-22T08:40:51;27.50;45.10
13074;DHT22;6603;47.066;15.396;2023-06-22T08:43:17;27.70;1.00
13074;DHT22;6603;47.066;15.396;2023-06-22T08:45:44;28.00;1.00
13074;DHT22;6603;47.066;15.396;2023-06-22T08:48:10;27.70;99.90
13074;DHT22;6603;47.066;15.396;2023-06-22T08:50:36;28.00;99.90
13074;DHT22;6603;47.066;15.396;2023-06-22T08:53:02;28.20;1.00
13074;DHT22;6603;47.066;15.396;2023-06-22T08:55:28;28.40;1.00
13074;DHT22;6603;47.066;15.396;2023-06-22T08:57:54;28.40;1.00
13074;DHT22;6603;47.066;15.396;2023-06-22T09:00:20;28.50;99.90
13074;DHT22;6603;47.066;15.396;2023-06-22T09:02:47;28.60;1.00
13074;DHT22;6603;47.066;15.396;2023-06-22T09:05:14;28.80;99.90
13074;DHT22;6603;47.066;15.396;2023-06-22T09:07:40;28.60;1.00
13074;DHT22;6603;47.066;15.396;2023-06-22T09:10:06;28.60;99.90
13074;DHT22;6603;47.066;15.396;2023-06-22T09:12:33;28.60;1.00
13074;DHT22;6603;47.066;15.396;2023-06-22T09:15:00;28.70;1.00
13074;DHT22;6603;47.066;15.396;2023-06-22T09:17:27;28.80;1.00
13074;DHT22;6603;47.066;15.396;2023-06-22T09:19:53;28.80;1.00
13074;DHT22;6603;47.066;15.396;2023-06-22T09:22:19;28.60;99.90
13074;DHT22;6603;47.066;15.396;2023-06-22T09:24:45;28.60;1.00
13074;DHT22;6603;47.066;15.396;2023-06-22T09:27:11;28.70;1.00
13074;DHT22;6603;47.066;15.396;2023-06-22T09:29:37;28.70;13.10
13074;DHT22;6603;47.066;15.396;2023-06-22T09:32:03;28.50;99.90
13074;DHT22;6603;47.066;15.396;2023-06-22T09:34:28;28.70;33.20
13074;DHT22;6603;47.066;15.396;2023-06-22T09:36:57;28.80;99.90
13074;DHT22;6603;47.066;15.396;2023-06-22T09:39:26;28.90;99.90
13074;DHT22;6603;47.066;15.396;2023-06-22T09:41:51;29.00;1.00
13074;DHT22;6603;47.066;15.396;2023-06-22T09:44:18;29.20;99.90
13074;DHT22;6603;47.066;15.396;2023-06-22T09:46:44;29.00;99.90
13074;DHT22;6603;47.066;15.396;2023-06-22T09:49:10;29.20;1.00
13074;DHT22;6603;47.066;15.396;2023-06-22T09:51:36;29.20;99.90
13074;DHT22;6603;47.066;15.396;2023-06-22T09:54:01;28.90;99.90
13074;DHT22;6603;47.066;15.396;2023-06-22T09:56:27;28.50;99.90
13074;DHT22;6603;47.066;15.396;2023-06-22T09:58:55;28.70;1.00
13074;DHT22;6603;47.066;15.396;2023-06-22T10:01:20;28.80;1.00
13074;DHT22;6603;47.066;15.396;2023-06-22T10:03:47;28.70;1.00
13074;DHT22;6603;47.066;15.396;2023-06-22T10:06:13;28.70;99.90
13074;DHT22;6603;47.066;15.396;2023-06-22T10:08:39;28.70;1.00
13074;DHT22;6603;47.066;15.396;2023-06-22T10:11:06;28.90;1.00
13074;DHT22;6603;47.066;15.396;2023-06-22T10:13:32;29.10;72.70
13074;DHT22;6603;47.066;15.396;2023-06-22T10:15:58;29.20;1.00
13074;DHT22;6603;47.066;15.396;2023-06-22T10:18:24;29.30;1.00
13074;DHT22;6603;47.066;15.396;2023-06-22T10:20:51;29.70;99.90
13074;DHT22;6603;47.066;15.396;2023-06-22T10:23:20;29.70;99.90
13074;DHT22;6603;47.066;15.396;2023-06-22T10:25:46;30.00;1.00
13074;DHT22;6603;47.066;15.396;2023-06-22T10:28:13;30.00;1.00
13074;DHT22;6603;47.066;15.396;2023-06-22T10:30:40;29.80;1.00
13074;DHT22;6603;47.066;15.396;2023-06-22T10:33:09;29.90;1.00
13074;DHT22;6603;47.066;15.396;2023-06-22T10:35:36;30.00;1.00
13074;DHT22;6603;47.066;15.396;2023-06-22T10:38:05;30.10;99.90
13074;DHT22;6603;47.066;15.396;2023-06-22T10:40:32;30.20;12.00
13074;DHT22;6603;47.066;15.396;2023-06-22T10:42:58;30.30;1.00
13074;DHT22;6603;47.066;15.396;2023-06-22T10:45:23;30.30;1.00
13074;DHT22;6603;47.066;15.396;2023-06-22T10:47:50;30.40;90.80
13074;DHT22;6603;47.066;15.396;2023-06-22T10:50:15;29.90;1.00
13074;DHT22;6603;47.066;15.396;2023-06-22T10:52:41;30.10;99.90
13074;DHT22;6603;47.066;15.396;2023-06-22T10:55:08;30.30;1.00
13074;DHT22;6603;47.066;15.396;2023-06-22T10:57:34;30.40;1.00
13074;DHT22;6603;47.066;15.396;2023-06-22T11:00:02;30.20;1.00
13074;DHT22;6603;47.066;15.396;2023-06-22T11:02:31;30.40;1.00
13074;DHT22;6603;47.066;15.396;2023-06-22T11:04:57;30.50;1.00
13074;DHT22;6603;47.066;15.396;2023-06-22T11:07:26;30.30;2.80
13074;DHT22;6603;47.066;15.396;2023-06-22T11:09:54;30.40;1.00
13074;DHT22;6603;47.066;15.396;2023-06-22T11:12:20;30.70;1.00
13074;DHT22;6603;47.066;15.396;2023-06-22T11:14:46;30.90;99.90
13074;DHT22;6603;47.066;15.396;2023-06-22T11:17:12;31.00;99.90
13074;DHT22;6603;47.066;15.396;2023-06-22T11:19:38;30.90;99.90
13074;DHT22;6603;47.066;15.396;2023-06-22T11:22:04;30.80;99.90
13074;DHT22;6603;47.066;15.396;2023-06-22T11:24:30;30.90;90.40
13074;DHT22;6603;47.066;15.396;2023-06-22T11:26:56;30.80;1.00
13074;DHT22;6603;47.066;15.396;2023-06-22T11:29:22;30.80;1.00
13074;DHT22;6603;47.066;15.396;2023-06-22T11:31:48;30.80;1.00
13074;DHT22;6603;47.066;15.396;2023-06-22T11:34:14;31.20;43.90
13074;DHT22;6603;47.066;15.396;2023-06-22T11:36:40;31.40;97.30
13074;DHT22;6603;47.066;15.396;2023-06-22T11:39:08;31.30;1.00
13074;DHT22;6603;47.066;15.396;2023-06-22T11:41:35;31.50;1.00
13074;DHT22;6603;47.066;15.396;2023-06-22T11:44:01;31.80;1.00
13074;DHT22;6603;47.066;15.396;2023-06-22T11:46:27;31.80;99.90
13074;DHT22;6603;47.066;15.396;2023-06-22T11:48:53;31.30;1.00
13074;DHT22;6603;47.066;15.396;2023-06-22T11:51:19;31.10;1.00
13074;DHT22;6603;47.066;15.396;2023-06-22T11:53:44;31.60;1.00
13074;DHT22;6603;47.066;15.396;2023-06-22T11:56:10;31.60;1.00
13074;DHT22;6603;47.066;15.396;2023-06-22T11:58:36;31.60;1.00
13074;DHT22;6603;47.066;15.396;2023-06-22T12:01:02;31.70;99.90
13074;DHT22;6603;47.066;15.396;2023-06-22T12:03:28;31.70;86.10
13074;DHT22;6603;47.066;15.396;2023-06-22T12:05:54;31.70;1.00
13074;DHT22;6603;47.066;15.396;2023-06-22T12:08:21;32.00;1.00
13074;DHT22;6603;47.066;15.396;2023-06-22T12:10:47;32.10;1.00
13074;DHT22;6603;47.066;15.396;2023-06-22T12:13:16;32.20;1.00
13074;DHT22;6603;47.066;15.396;2023-06-22T12:15:41;31.60;99.90
13074;DHT22;6603;47.066;15.396;2023-06-22T12:18:07;32.10;99.90
13074;DHT22;6603;47.066;15.396;2023-06-22T12:20:34;32.30;1.00
13074;DHT22;6603;47.066;15.396;2023-06-22T12:23:01;32.50;1.00
13074;DHT22;6603;47.066;15.396;2023-06-22T12:25:27;32.50;1.00
13074;DHT22;6603;47.066;15.396;2023-06-22T12:27:52;32.60;1.00
13074;DHT22;6603;47.066;15.396;2023-06-22T12:30:19;32.00;99.90
13074;DHT22;6603;47.066;15.396;2023-06-22T12:32:45;32.30;1.00
13074;DHT22;6603;47.066;15.396;2023-06-22T12:35:11;32.50;99.90
13074;DHT22;6603;47.066;15.396;2023-06-22T12:37:43;32.80;99.90
13074;DHT22;6603;47.066;15.396;2023-06-22T12:40:10;32.90;99.90
13074;DHT22;6603;47.066;15.396;2023-06-22T12:42:36;32.80;1.00
13074;DHT22;6603;47.066;15.396;2023-06-22T12:45:02;32.90;99.90
13074;DHT22;6603;47.066;15.396;2023-06-22T12:47:28;32.40;99.90
13074;DHT22;6603;47.066;15.396;2023-06-22T12:49:54;32.60;99.90
13074;DHT22;6603;47.066;15.396;2023-06-22T12:52:20;32.70;99.90
13074;DHT22;6603;47.066;15.396;2023-06-22T12:54:46;32.80;99.90
13074;DHT22;6603;47.066;15.396;2023-06-22T12:57:12;32.70;99.90
13074;DHT22;6603;47.066;15.396;2023-06-22T12:59:38;32.70;1.00
13074;DHT22;6603;47.066;15.396;2023-06-22T13:02:04;32.80;99.90
13074;DHT22;6603;47.066;15.396;2023-06-22T13:04:31;33.20;99.90
13074;DHT22;6603;47.066;15.396;2023-06-22T13:06:56;33.10;99.90
13074;DHT22;6603;47.066;15.396;2023-06-22T13:09:22;33.20;68.00
13074;DHT22;6603;47.066;15.396;2023-06-22T13:11:48;33.20;99.90
13074;DHT22;6603;47.066;15.396;2023-06-22T13:14:14;33.50;99.90
13074;DHT22;6603;47.066;15.396;2023-06-22T13:16:41;33.60;99.90
13074;DHT22;6603;47.066;15.396;2023-06-22T13:19:08;33.60;99.90
13074;DHT22;6603;47.066;15.396;2023-06-22T13:21:34;33.50;35.60
13074;DHT22;6603;47.066;15.396;2023-06-22T13:24:00;33.30;19.70
13074;DHT22;6603;47.066;15.396;2023-06-22T13:26:27;33.40;99.90
13074;DHT22;6603;47.066;15.396;2023-06-22T13:28:54;33.50;99.90
13074;DHT22;6603;47.066;15.396;2023-06-22T13:31:20;33.70;93.60
13074;DHT22;6603;47.066;15.396;2023-06-22T13:33:47;33.50;99.90
13074;DHT22;6603;47.066;15.396;2023-06-22T13:36:14;33.20;1.00
13074;DHT22;6603;47.066;15.396;2023-06-22T13:38:41;33.30;1.00
13074;DHT22;6603;47.066;15.396;2023-06-22T13:41:07;33.40;80.40
13074;DHT22;6603;47.066;15.396;2023-06-22T13:43:33;33.10;1.00
13074;DHT22;6603;47.066;15.396;2023-06-22T13:45:59;33.20;99.90
13074;DHT22;6603;47.066;15.396;2023-06-22T13:48:25;33.50;99.90
13074;DHT22;6603;47.066;15.396;2023-06-22T13:50:52;33.30;99.90
13074;DHT22;6603;47.066;15.396;2023-06-22T13:53:18;33.70;99.90
13074;DHT22;6603;47.066;15.396;2023-06-22T13:55:44;33.80;52.60
13074;DHT22;6603;47.066;15.396;2023-06-22T13:58:10;33.80;1.00
13074;DHT22;6603;47.066;15.396;2023-06-22T14:00:36;33.50;1.00
13074;DHT22;6603;47.066;15.396;2023-06-22T14:03:02;33.80;1.00
13074;DHT22;6603;47.066;15.396;2023-06-22T14:05:28;33.80;95.30
13074;DHT22;6603;47.066;15.396;2023-06-22T14:07:54;33.90;25.50
13074;DHT22;6603;47.066;15.396;2023-06-22T14:10:20;34.00;1.00
13074;DHT22;6603;47.066;15.396;2023-06-22T14:12:46;33.90;30.70
13074;DHT22;6603;47.066;15.396;2023-06-22T14:15:12;34.00;1.00
13074;DHT22;6603;47.066;15.396;2023-06-22T14:17:38;33.90;35.20
13074;DHT22;6603;47.066;15.396;2023-06-22T14:20:05;34.00;99.90
13074;DHT22;6603;47.066;15.396;2023-06-22T14:22:33;33.80;99.90
13074;DHT22;6603;47.066;15.396;2023-06-22T14:25:01;33.80;99.90
13074;DHT22;6603;47.066;15.396;2023-06-22T14:27:27;33.80;99.90
13074;DHT22;6603;47.066;15.396;2023-06-22T14:29:53;34.10;99.90
13074;DHT22;6603;47.066;15.396;2023-06-22T14:32:19;34.40;21.60
13074;DHT22;6603;47.066;15.396;2023-06-22T14:34:45;34.30;1.00
13074;DHT22;6603;47.066;15.396;2023-06-22T14:37:11;34.30;9.10
13074;DHT22;6603;47.066;15.396;2023-06-22T14:39:38;34.30;1.00
13074;DHT22;6603;47.066;15.396;2023-06-22T14:42:05;34.30;1.00
13074;DHT22;6603;47.066;15.396;2023-06-22T14:44:31;34.30;1.00
13074;DHT22;6603;47.066;15.396;2023-06-22T14:46:58;34.00;1.00
13074;DHT22;6603;47.066;15.396;2023-06-22T14:49:23;34.10;1.00
13074;DHT22;6603;47.066;15.396;2023-06-22T14:51:51;34.00;69.00
13074;DHT22;6603;47.066;15.396;2023-06-22T14:54:17;34.00;91.90
13074;DHT22;6603;47.066;15.396;2023-06-22T14:56:43;34.10;81.40
13074;DHT22;6603;47.066;15.396;2023-06-22T14:59:10;34.00;9.30
13074;DHT22;6603;47.066;15.396;2023-06-22T15:01:36;34.10;1.00
13074;DHT22;6603;47.066;15.396;2023-06-22T15:04:02;34.20;99.90
13074;DHT22;6603;47.066;15.396;2023-06-22T15:06:28;34.20;1.00
13074;DHT22;6603;47.066;15.396;2023-06-22T15:08:54;34.30;1.00
13074;DHT22;6603;47.066;15.396;2023-06-22T15:11:20;34.50;1.00
13074;DHT22;6603;47.066;15.396;2023-06-22T15:13:46;34.30;1.00
13074;DHT22;6603;47.066;15.396;2023-06-22T15:16:12;34.00;1.00
13074;DHT22;6603;47.066;15.396;2023-06-22T15:18:38;33.90;4.70
13074;DHT22;6603;47.066;15.396;2023-06-22T15:21:06;34.00;45.40
13074;DHT22;6603;47.066;15.396;2023-06-22T15:23:33;34.30;1.00
13074;DHT22;6603;47.066;15.396;2023-06-22T15:26:02;34.20;1.00
13074;DHT22;6603;47.066;15.396;2023-06-22T15:28:30;34.50;1.00
13074;DHT22;6603;47.066;15.396;2023-06-22T15:30:58;34.20;1.00
13074;DHT22;6603;47.066;15.396;2023-06-22T15:33:24;33.70;38.20
13074;DHT22;6603;47.066;15.396;2023-06-22T15:35:51;33.60;98.50
13074;DHT22;6603;47.066;15.396;2023-06-22T15:38:18;33.70;99.90
13074;DHT22;6603;47.066;15.396;2023-06-22T15:40:44;33.50;99.90
13074;DHT22;6603;47.066;15.396;2023-06-22T15:43:11;33.20;99.90
13074;DHT22;6603;47.066;15.396;2023-06-22T15:45:38;33.10;99.90
13074;DHT22;6603;47.066;15.396;2023-06-22T15:48:04;33.20;99.90